createdAt,value
2023-09-27T00:01:09.511Z,95996.53
2023-09-27T00:03:50.881Z,95993.06
2023-09-27T00:06:30.510Z,95989.72
2023-09-27T00:09:10.651Z,95988.03
2023-09-27T00:11:50.525Z,95989.75
2023-09-27T00:14:30.631Z,95990.63
2023-09-27T00:17:11.570Z,95988.94
2023-09-27T00:19:58.525Z,95989.00
2023-09-27T00:22:38.525Z,95985.56
2023-09-27T00:25:25.535Z,95985.59
2023-09-27T00:27:58.961Z,95995.88
2023-09-27T00:30:45.537Z,95988.16
2023-09-27T00:33:19.139Z,95997.53
2023-09-27T00:36:05.530Z,95987.28
2023-09-27T00:38:38.875Z,95991.56
2023-09-27T00:41:25.654Z,95994.19
2023-09-27T00:44:05.594Z,95996.78
2023-09-27T00:46:59.562Z,96000.25
2023-09-27T00:49:46.550Z,95990.88
2023-09-27T00:52:22.628Z,95992.63
2023-09-27T00:55:09.541Z,95986.69
2023-09-27T00:57:50.604Z,95987.56
2023-09-27T01:00:37.582Z,95990.13
2023-09-27T01:03:12.110Z,95987.56
2023-09-27T01:05:58.564Z,95986.78
2023-09-27T01:08:38.606Z,95994.47
2023-09-27T01:11:25.607Z,95997.06
2023-09-27T01:13:58.682Z,95993.63
2023-09-27T01:16:45.575Z,95999.59
2023-09-27T01:19:18.633Z,95997.91
2023-09-27T01:22:05.555Z,95997.09
2023-09-27T01:24:42.694Z,95991.97
2023-09-27T01:27:30.595Z,95994.56
2023-09-27T01:30:13.546Z,96004.81
2023-09-27T01:33:07.650Z,96001.41
2023-09-27T01:36:03.556Z,96001.41
2023-09-27T01:38:50.698Z,95999.69
2023-09-27T01:41:23.755Z,96003.13
2023-09-27T01:44:10.612Z,96006.56
2023-09-27T01:46:53.602Z,95998.88
2023-09-27T01:49:47.555Z,95998.00
2023-09-27T01:52:41.573Z,96004.81
2023-09-27T01:55:28.575Z,96003.09
2023-09-27T01:58:02.672Z,96001.41
2023-09-27T02:00:49.581Z,96004.84
2023-09-27T02:03:22.830Z,96007.41
2023-09-27T02:06:09.584Z,95998.91
2023-09-27T02:08:49.572Z,96002.34
2023-09-27T02:11:43.580Z,95998.06
2023-09-27T02:14:37.614Z,96004.91
2023-09-27T02:17:24.616Z,96004.94
2023-09-27T02:20:04.609Z,96007.50
2023-09-27T02:22:54.612Z,96002.41
2023-09-27T02:25:28.578Z,96017.75
2023-09-27T02:28:15.588Z,96007.50
2023-09-27T02:30:55.593Z,96014.34
2023-09-27T02:33:49.586Z,96014.34
2023-09-27T02:36:36.590Z,96011.81
2023-09-27T02:39:11.573Z,96010.09
2023-09-27T02:41:58.600Z,96012.69
2023-09-27T02:44:32.373Z,96022.94
2023-09-27T02:47:20.642Z,96023.75
2023-09-27T02:50:07.593Z,96019.47
2023-09-27T02:52:47.613Z,96015.19
2023-09-27T02:55:27.671Z,96022.06
2023-09-27T02:58:07.612Z,96018.69
2023-09-27T03:00:49.260Z,96011.88
2023-09-27T03:03:29.650Z,96017.88
2023-09-27T03:06:10.177Z,96017.88
2023-09-27T03:08:50.622Z,96017.88
2023-09-27T03:11:37.659Z,96011.88
2023-09-27T03:14:11.098Z,96017.84
2023-09-27T03:16:57.688Z,96017.81
2023-09-27T03:19:37.677Z,96019.50
2023-09-27T03:22:24.605Z,96024.63
2023-09-27T03:24:57.965Z,96022.94
2023-09-27T03:27:44.609Z,96024.63
2023-09-27T03:30:18.468Z,96024.63
2023-09-27T03:33:05.717Z,96023.81
2023-09-27T03:35:39.046Z,96024.66
2023-09-27T03:38:25.706Z,96021.25
2023-09-27T03:40:59.019Z,96027.28
2023-09-27T03:43:45.689Z,96018.75
2023-09-27T03:46:19.309Z,96023.88
2023-09-27T03:49:06.693Z,96018.81
2023-09-27T03:51:40.038Z,96018.81
2023-09-27T03:54:29.686Z,96017.13
2023-09-27T03:57:23.693Z,96011.13
2023-09-27T04:00:29.670Z,96011.09
2023-09-27T04:03:02.948Z,96006.81
2023-09-27T04:05:49.670Z,96004.28
2023-09-27T04:08:29.707Z,96011.97
2023-09-27T04:11:23.730Z,96011.13
2023-09-27T04:14:18.668Z,96009.44
2023-09-27T04:17:12.754Z,96010.31
2023-09-27T04:19:59.737Z,96013.69
2023-09-27T04:22:32.804Z,96012.84
2023-09-27T04:25:22.625Z,96012.88
2023-09-27T04:28:03.707Z,96010.34
2023-09-27T04:30:57.695Z,96012.09
2023-09-27T04:33:47.817Z,96009.59
2023-09-27T04:36:24.782Z,96017.28
2023-09-27T04:39:20.694Z,96018.09
2023-09-27T04:41:56.481Z,96012.97
2023-09-27T04:44:50.695Z,96018.13
2023-09-27T04:47:44.762Z,96018.13
2023-09-27T04:50:38.737Z,96023.22
2023-09-27T04:53:25.743Z,96021.53
2023-09-27T04:55:59.818Z,96024.91
2023-09-27T04:58:49.763Z,96029.19
2023-09-27T05:01:29.769Z,96028.31
2023-09-27T05:04:16.720Z,96029.97
2023-09-27T05:06:56.697Z,96034.28
2023-09-27T05:09:50.749Z,96037.66
2023-09-27T05:12:40.627Z,96035.09
2023-09-27T05:15:24.698Z,96035.09
2023-09-27T05:18:18.739Z,96038.50
2023-09-27T05:21:11.765Z,96033.38
2023-09-27T05:23:45.151Z,96035.06
2023-09-27T05:26:31.748Z,96039.34
2023-09-27T05:29:04.890Z,96040.19
2023-09-27T05:31:51.732Z,96039.34
2023-09-27T05:34:31.717Z,96040.16
2023-09-27T05:37:25.717Z,96044.41
2023-09-27T05:40:20.701Z,96041.88
2023-09-27T05:43:16.766Z,96044.38
2023-09-27T05:46:10.760Z,96046.91
2023-09-27T05:49:04.715Z,96041.72
2023-09-27T05:51:51.730Z,96048.50
2023-09-27T05:54:25.002Z,96040.75
2023-09-27T05:57:11.722Z,96050.94
2023-09-27T05:59:54.790Z,96048.31
2023-09-27T06:02:48.892Z,96053.38
2023-09-27T06:05:42.795Z,96049.84
2023-09-27T06:08:36.818Z,96050.66
2023-09-27T06:11:23.769Z,96054.00
2023-09-27T06:14:03.981Z,96053.09
2023-09-27T06:16:47.792Z,96062.41
2023-09-27T06:19:34.753Z,96054.69
2023-09-27T06:22:08.109Z,96052.94
2023-09-27T06:24:54.721Z,96053.72
2023-09-27T06:27:37.719Z,96060.50
2023-09-27T06:30:24.768Z,96056.13
2023-09-27T06:32:58.202Z,96057.69
2023-09-27T06:35:44.762Z,96062.72
2023-09-27T06:38:23.145Z,96060.06
2023-09-27T06:41:09.932Z,96060.78
2023-09-27T06:43:49.825Z,96058.91
2023-09-27T06:46:48.841Z,96063.88
2023-09-27T06:49:37.755Z,96065.44
2023-09-27T06:52:17.840Z,96069.53
2023-09-27T06:55:14.755Z,96067.63
2023-09-27T06:58:01.758Z,96061.47
2023-09-27T07:00:34.877Z,96064.78
2023-09-27T07:03:24.778Z,96062.03
2023-09-27T07:06:09.794Z,96061.88
2023-09-27T07:09:07.779Z,96065.16
2023-09-27T07:12:05.807Z,96059.88
2023-09-27T07:14:59.792Z,96070.03
2023-09-27T07:17:49.936Z,96069.84
2023-09-27T07:20:29.125Z,96070.59
2023-09-27T07:23:21.837Z,96067.03
2023-09-27T07:25:56.016Z,96068.59
2023-09-27T07:28:44.806Z,96074.47
2023-09-27T07:31:21.341Z,96071.78
2023-09-27T07:34:08.796Z,96070.78
2023-09-27T07:36:41.866Z,96070.59
2023-09-27T07:39:30.783Z,96072.16
2023-09-27T07:42:10.766Z,96068.53
2023-09-27T07:45:06.752Z,96070.91
2023-09-27T07:48:01.918Z,96062.09
2023-09-27T07:50:56.769Z,96069.63
2023-09-27T07:53:38.709Z,96070.22
2023-09-27T07:56:44.841Z,96078.56
2023-09-27T07:59:18.360Z,96075.69
2023-09-27T08:02:06.805Z,96066.88
2023-09-27T08:04:41.196Z,96073.50
2023-09-27T08:07:28.753Z,96070.72
2023-09-27T08:10:20.303Z,96068.75
2023-09-27T08:13:08.767Z,96065.16
2023-09-27T08:16:07.759Z,96063.06
2023-09-27T08:18:58.769Z,96067.91
2023-09-27T08:21:32.872Z,96067.72
2023-09-27T08:24:19.792Z,96062.34
2023-09-27T08:26:59.803Z,96068.06
2023-09-27T08:29:53.791Z,96066.16
2023-09-27T08:32:48.889Z,96067.56
2023-09-27T08:35:35.865Z,96057.75
2023-09-27T08:38:15.892Z,96064.41
2023-09-27T08:41:02.774Z,96055.59
2023-09-27T08:43:36.887Z,96053.66
2023-09-27T08:46:33.859Z,96057.81
2023-09-27T08:49:25.248Z,96052.31
2023-09-27T08:52:06.780Z,96053.72
2023-09-27T08:55:00.780Z,96048.25
2023-09-27T08:57:54.796Z,96045.25
2023-09-27T09:00:36.842Z,96045.84
2023-09-27T09:03:24.976Z,96044.75
2023-09-27T09:05:59.002Z,96046.25
2023-09-27T09:08:51.876Z,96045.13
2023-09-27T09:11:33.865Z,96044.94
2023-09-27T09:14:24.890Z,96042.88
2023-09-27T09:17:11.230Z,96045.16
2023-09-27T09:20:25.033Z,96040.69
2023-09-27T09:22:58.719Z,96036.09
2023-09-27T09:25:51.795Z,96036.75
2023-09-27T09:28:32.857Z,96036.63
2023-09-27T09:31:42.979Z,96028.56
2023-09-27T09:34:39.158Z,96032.63
2023-09-27T09:37:28.843Z,96039.41
2023-09-27T09:40:25.323Z,96035.56
2023-09-27T09:43:18.857Z,96033.09
2023-09-27T09:46:17.221Z,96037.09
2023-09-27T09:49:11.821Z,96033.25
2023-09-27T09:52:05.791Z,96032.19
2023-09-27T09:55:16.010Z,96031.03
2023-09-27T09:58:21.866Z,96027.59
2023-09-27T10:01:01.839Z,96029.38
2023-09-27T10:09:35.838Z,96026.50
2023-09-27T10:12:25.837Z,96024.78
2023-09-27T10:14:59.930Z,96024.66
2023-09-27T10:17:46.935Z,96027.13
2023-09-27T10:20:23.502Z,96022.00
2023-09-27T10:23:18.880Z,96017.66
2023-09-27T10:25:58.831Z,96011.53
2023-09-27T10:29:18.930Z,96020.16
2023-09-27T10:32:05.889Z,96025.31
2023-09-27T10:34:45.854Z,96017.28
2023-09-27T10:38:17.863Z,96015.31
2023-09-27T10:41:11.930Z,96018.59
2023-09-27T10:43:58.947Z,96016.63
2023-09-27T10:46:32.956Z,96004.53
2023-09-27T10:49:27.851Z,95999.41
2023-09-27T10:52:08.856Z,96000.31
2023-09-27T10:55:02.868Z,95997.81
2023-09-27T10:57:56.934Z,95992.59
2023-09-27T11:01:13.913Z,95997.78
2023-09-27T11:04:22.817Z,95991.41
2023-09-27T11:07:10.922Z,95986.03
2023-09-27T11:09:59.851Z,95985.09
2023-09-27T11:12:53.889Z,95981.47
2023-09-27T11:15:44.879Z,95980.63
2023-09-27T11:18:19.128Z,95973.63
2023-09-27T11:21:15.869Z,95970.97
2023-09-27T11:24:11.879Z,95979.53
2023-09-27T11:26:58.891Z,95972.28
2023-09-27T11:29:38.926Z,95978.78
2023-09-27T11:32:26.906Z,95973.50
2023-09-27T11:35:11.953Z,95972.13
2023-09-27T11:38:19.921Z,95964.28
2023-09-27T11:40:59.903Z,95963.19
2023-09-27T11:43:54.368Z,95963.94
2023-09-27T11:46:42.894Z,95958.00
2023-09-27T11:49:23.887Z,95957.31
2023-09-27T11:52:18.903Z,95958.19
2023-09-27T11:55:05.902Z,95956.09
2023-09-27T11:57:45.925Z,95951.66
2023-09-27T12:00:33.893Z,95948.22
2023-09-27T12:03:07.191Z,95952.59
2023-09-27T12:05:54.237Z,95946.19
2023-09-27T12:08:34.923Z,95949.78
2023-09-27T12:11:21.939Z,95949.84
2023-09-27T12:14:01.900Z,95954.00
2023-09-27T12:16:48.881Z,95951.91
2023-09-27T12:19:28.905Z,95948.03
2023-09-27T12:22:23.125Z,95953.19
2023-09-27T12:25:16.944Z,95944.47
2023-09-27T12:28:10.956Z,95946.16
2023-09-27T12:31:04.986Z,95946.06
2023-09-27T12:33:58.896Z,95944.16
2023-09-27T12:36:45.935Z,95943.25
2023-09-27T12:39:25.942Z,95946.56
2023-09-27T12:42:12.902Z,95944.03
2023-09-27T12:44:46.035Z,95948.38
2023-09-27T12:47:33.028Z,95937.84
2023-09-27T12:50:07.896Z,95934.38
2023-09-27T12:52:54.939Z,95931.06
2023-09-27T12:55:34.913Z,95927.50
2023-09-27T12:58:21.944Z,95925.81
2023-09-27T13:01:02.003Z,95923.25
2023-09-27T13:03:49.002Z,95919.81
2023-09-27T13:06:29.933Z,95921.81
2023-09-27T13:09:17.956Z,95917.81
2023-09-27T13:12:04.966Z,95921.06
2023-09-27T13:14:38.303Z,95912.56
2023-09-27T13:17:25.032Z,95916.72
2023-09-27T13:19:58.314Z,95912.34
2023-09-27T13:22:44.952Z,95909.75
2023-09-27T13:25:25.041Z,95908.78
2023-09-27T13:28:11.941Z,95908.91
2023-09-27T13:30:45.342Z,95894.25
2023-09-27T13:33:33.057Z,95897.84
2023-09-27T13:36:06.560Z,95894.34
2023-09-27T13:38:53.273Z,95901.38
2023-09-27T13:41:35.011Z,95893.78
2023-09-27T13:44:23.585Z,95892.06
2023-09-27T13:47:05.503Z,95899.19
2023-09-27T13:49:54.542Z,95894.03
2023-09-27T13:52:34.978Z,95894.09
2023-09-27T13:55:22.971Z,95881.25
2023-09-27T13:57:57.340Z,95881.50
2023-09-27T14:00:43.965Z,95880.72
2023-09-27T14:03:25.043Z,95889.31
2023-09-27T14:06:05.372Z,95879.00
2023-09-27T14:08:45.313Z,95877.09
2023-09-27T14:11:33.111Z,95877.03
2023-09-27T14:14:06.372Z,95870.91
2023-09-27T14:16:54.077Z,95871.78
2023-09-27T14:19:27.349Z,95869.22
2023-09-27T14:22:14.014Z,95876.97
2023-09-27T14:24:54.000Z,95875.97
2023-09-27T14:27:41.013Z,95872.56
2023-09-27T14:30:22.115Z,95868.09
2023-09-27T14:33:09.032Z,95862.78
2023-09-27T14:38:36.091Z,95865.28
2023-09-27T14:41:17.024Z,95858.41
2023-09-27T14:43:57.176Z,95861.16
2023-09-27T14:46:37.137Z,95866.56
2023-09-27T14:49:18.392Z,95861.47
2023-09-27T14:51:59.013Z,95861.44
2023-09-27T14:54:46.057Z,95859.94
2023-09-27T14:57:21.419Z,95856.78
2023-09-27T15:00:08.051Z,95859.50
2023-09-27T15:02:55.161Z,95854.50
2023-09-27T15:05:28.176Z,95862.56
2023-09-27T15:08:16.048Z,95857.72
2023-09-27T15:10:49.213Z,95860.50
2023-09-27T15:13:37.029Z,95859.09
2023-09-27T15:16:17.052Z,95861.94
2023-09-27T15:19:11.077Z,95858.84
2023-09-27T15:22:05.036Z,95860.09
2023-09-27T15:25:00.163Z,95862.31
2023-09-27T15:27:47.061Z,95861.75
2023-09-27T15:30:20.142Z,95868.22
2023-09-27T15:33:07.182Z,95862.47
2023-09-27T15:35:40.334Z,95864.53
2023-09-27T15:38:27.038Z,95863.16
2023-09-27T15:41:08.040Z,95860.97
2023-09-27T15:44:02.081Z,95856.16
2023-09-27T15:46:58.093Z,95854.75
2023-09-27T15:49:45.156Z,95854.16
2023-09-27T15:52:26.130Z,95853.69
2023-09-27T15:55:24.074Z,95847.94
2023-09-27T15:58:12.048Z,95851.78
2023-09-27T16:00:53.091Z,95852.94
2023-09-27T16:03:47.053Z,95845.50
2023-09-27T16:06:41.082Z,95849.31
2023-09-27T16:09:35.041Z,95851.34
2023-09-27T16:12:22.070Z,95840.41
2023-09-27T16:15:02.062Z,95847.56
2023-09-27T16:17:56.085Z,95844.28
2023-09-27T16:20:50.138Z,95843.66
2023-09-27T16:23:44.090Z,95847.34
2023-09-27T16:26:31.236Z,95848.53
2023-09-27T16:29:04.234Z,95847.81
2023-09-27T16:31:53.208Z,95847.91
2023-09-27T16:34:26.620Z,95848.97
2023-09-27T16:37:13.112Z,95852.59
2023-09-27T16:39:46.596Z,95846.69
2023-09-27T16:42:33.213Z,95840.81
2023-09-27T16:45:13.136Z,95840.06
2023-09-27T16:48:07.163Z,95847.88
2023-09-27T16:50:54.140Z,95849.78
2023-09-27T16:53:34.128Z,95851.75
2023-09-27T16:56:21.150Z,95846.75
2023-09-27T16:58:55.294Z,95846.00
2023-09-27T17:01:42.232Z,95849.72
2023-09-27T17:04:23.144Z,95849.91
2023-09-27T17:07:17.237Z,95851.91
2023-09-27T17:10:05.124Z,95850.44
2023-09-27T17:12:39.281Z,95850.59
2023-09-27T17:15:33.141Z,95849.06
2023-09-27T17:18:27.215Z,95859.66
2023-09-27T17:21:21.132Z,95853.00
2023-09-27T17:24:01.676Z,95850.59
2023-09-27T17:26:48.170Z,95853.38
2023-09-27T17:29:28.144Z,95851.03
2023-09-27T17:32:15.215Z,95852.81
2023-09-27T17:34:48.564Z,95855.78
2023-09-27T17:37:35.287Z,95860.31
2023-09-27T17:40:09.235Z,95857.00
2023-09-27T17:42:57.179Z,95858.69
2023-09-27T17:45:37.182Z,95856.19
2023-09-27T17:48:31.181Z,95852.94
2023-09-27T17:51:19.174Z,95857.53
2023-09-27T17:54:00.190Z,95849.94
2023-09-27T17:56:54.185Z,95859.47
2023-09-27T17:59:41.167Z,95858.69
2023-09-27T18:02:22.229Z,95852.84
2023-09-27T18:05:09.164Z,95855.56
2023-09-27T18:07:42.280Z,95854.91
2023-09-27T18:10:29.189Z,95850.94
2023-09-27T18:13:02.345Z,95851.00
2023-09-27T18:15:49.232Z,95840.94
2023-09-27T18:18:22.379Z,95844.56
2023-09-27T18:21:09.164Z,95848.06
2023-09-27T18:23:42.831Z,95849.75
2023-09-27T18:26:34.125Z,95846.31
2023-09-27T18:29:07.376Z,95855.00
2023-09-27T18:31:55.301Z,95855.03
2023-09-27T18:34:28.261Z,95848.53
2023-09-27T18:37:17.141Z,95857.31
2023-09-27T18:39:50.261Z,95855.78
2023-09-27T18:42:37.146Z,95855.94
2023-09-27T18:45:10.335Z,95849.13
2023-09-27T18:48:04.266Z,95854.25
2023-09-27T18:50:51.182Z,95851.91
2023-09-27T18:53:25.313Z,95850.25
2023-09-27T18:56:12.142Z,95849.47
2023-09-27T18:58:45.406Z,95842.69
2023-09-27T19:01:33.222Z,95841.94
2023-09-27T19:04:06.306Z,95844.63
2023-09-27T19:06:53.137Z,95839.47
2023-09-27T19:09:26.298Z,95837.00
2023-09-27T19:12:13.155Z,95843.91
2023-09-27T19:14:46.298Z,95845.69
2023-09-27T19:17:33.194Z,95836.41
2023-09-27T19:20:16.172Z,95833.03
2023-09-27T19:23:10.200Z,95833.94
2023-09-27T19:25:57.162Z,95834.81
2023-09-27T19:28:33.709Z,95832.34
2023-09-27T19:31:24.148Z,95829.72
2023-09-27T19:34:04.174Z,95822.16
2023-09-27T19:36:51.198Z,95823.09
2023-09-27T19:39:27.450Z,95824.84
2023-09-27T19:42:14.168Z,95819.63
2023-09-27T19:44:47.295Z,95817.88
2023-09-27T19:47:36.216Z,95811.06
2023-09-27T19:50:12.936Z,95814.75
2023-09-27T19:53:00.297Z,95816.56
2023-09-27T19:55:40.207Z,95811.38
2023-09-27T19:58:34.212Z,95816.50
2023-09-27T20:01:40.338Z,95820.09
2023-09-27T20:04:14.306Z,95818.59
2023-09-27T20:07:01.212Z,95821.09
2023-09-27T20:09:37.309Z,95820.25
2023-09-27T20:12:24.205Z,95819.69
2023-09-27T20:14:57.366Z,95821.56
2023-09-27T20:17:44.204Z,95824.22
2023-09-27T20:20:17.322Z,95822.44
2023-09-27T20:23:04.235Z,95817.28
2023-09-27T20:25:44.282Z,95819.97
2023-09-27T20:28:38.415Z,95816.66
2023-09-27T20:31:26.551Z,95815.84
2023-09-27T20:34:00.427Z,95819.28
2023-09-27T20:36:47.268Z,95815.00
2023-09-27T20:39:20.961Z,95809.84
2023-09-27T20:42:09.214Z,95812.47
2023-09-27T20:44:42.307Z,95808.16
2023-09-27T20:47:36.388Z,95810.75
2023-09-27T20:50:23.197Z,95815.03
2023-09-27T20:53:03.391Z,95813.38
2023-09-27T20:55:57.207Z,95809.13
2023-09-27T20:58:48.305Z,95807.41
2023-09-27T21:01:41.994Z,95804.97
2023-09-27T21:04:29.252Z,95804.09
2023-09-27T21:07:10.202Z,95807.56
2023-09-27T21:09:57.213Z,95811.88
2023-09-27T21:12:30.347Z,95806.75
2023-09-27T21:15:17.212Z,95810.31
2023-09-27T21:17:57.254Z,95798.31
2023-09-27T21:20:51.231Z,95793.25
2023-09-27T21:23:38.214Z,95796.94
2023-09-27T21:26:13.136Z,95789.38
2023-09-27T21:29:00.295Z,95796.31
2023-09-27T21:31:34.067Z,95792.03
2023-09-27T21:34:21.211Z,95793.84
2023-09-27T21:36:57.335Z,95796.47
2023-09-27T21:39:44.217Z,95794.03
2023-09-27T21:42:17.921Z,95794.97
2023-09-27T21:45:05.253Z,95792.53
2023-09-27T21:47:38.386Z,95790.88
2023-09-27T21:50:25.251Z,95790.09
2023-09-27T21:52:58.410Z,95798.63
2023-09-27T21:55:45.230Z,95793.56
2023-09-27T21:58:18.431Z,95796.13
2023-09-27T22:01:05.268Z,95797.00
2023-09-27T22:03:38.392Z,95796.19
2023-09-27T22:06:25.248Z,95790.28
2023-09-27T22:09:05.241Z,95798.06
2023-09-27T22:11:53.252Z,95800.66
2023-09-27T22:14:26.659Z,95788.72
2023-09-27T22:17:16.237Z,95796.38
2023-09-27T22:19:56.274Z,95799.00
2023-09-27T22:22:51.290Z,95787.84
2023-09-27T22:25:45.277Z,95787.00
2023-09-27T22:28:32.473Z,95788.81
2023-09-27T22:31:14.162Z,95783.66
2023-09-27T22:34:04.238Z,95790.47
2023-09-27T22:36:44.251Z,95784.50
2023-09-27T22:39:31.243Z,95795.66
2023-09-27T22:42:12.254Z,95780.25
2023-09-27T22:44:59.255Z,95782.81
2023-09-27T22:47:39.263Z,95777.75
2023-09-27T22:50:36.251Z,95781.25
2023-09-27T22:53:35.242Z,95777.03
2023-09-27T22:56:29.270Z,95782.16
2023-09-27T22:59:17.284Z,95780.47
2023-09-27T23:02:02.355Z,95781.25
2023-09-27T23:04:59.321Z,95785.59
2023-09-27T23:07:53.288Z,95783.88
2023-09-27T23:10:47.272Z,95780.47
2023-09-27T23:13:37.304Z,95780.53
2023-09-27T23:16:49.298Z,95783.16
2023-09-27T23:19:39.289Z,95780.69
2023-09-27T23:22:19.270Z,95783.25
2023-09-27T23:25:26.268Z,95785.03
2023-09-27T23:28:03.778Z,95784.25
2023-09-27T23:31:00.304Z,95775.84
2023-09-27T23:33:55.479Z,95781.84
2023-09-27T23:36:46.276Z,95781.06
2023-09-27T23:39:23.051Z,95781.94
2023-09-27T23:42:10.305Z,95770.91
2023-09-27T23:44:44.121Z,95778.59
2023-09-27T23:47:39.401Z,95775.97
2023-09-27T23:50:38.279Z,95777.75
2023-09-27T23:53:25.272Z,95778.66
2023-09-27T23:56:07.317Z,95779.56
2023-09-27T23:59:01.314Z,95781.28
